createdAt,value
2023-02-11T00:02:30.301Z,16.8
2023-02-11T00:12:38.188Z,16.48
2023-02-11T00:22:46.337Z,16.65
2023-02-11T00:32:54.250Z,16.66
2023-02-11T00:43:02.336Z,15.01
2023-02-11T00:53:11.482Z,14.72
2023-02-11T01:03:19.549Z,15.14
2023-02-11T01:13:27.655Z,15.1
2023-02-11T01:23:36.691Z,16.26
2023-02-11T01:33:44.649Z,14.04
2023-02-11T01:43:52.725Z,11.83
2023-02-11T01:54:00.795Z,10.92
2023-02-11T02:04:09.151Z,13.7
2023-02-11T02:14:17.186Z,13.49
2023-02-11T02:24:27.763Z,12.67
2023-02-11T02:34:25.952Z,11.69
2023-02-11T02:44:34.415Z,11.27
2023-02-11T02:54:42.469Z,12.39
2023-02-11T03:04:51.851Z,12.68
2023-02-11T03:14:59.937Z,13.01
2023-02-11T03:25:08.120Z,12.36
2023-02-11T03:35:16.189Z,11.52
2023-02-11T03:45:24.293Z,13.34
2023-02-11T03:55:32.286Z,14
2023-02-11T04:05:40.301Z,13.95
2023-02-11T04:15:49.050Z,14.76
2023-02-11T04:25:55.788Z,13.35
2023-02-11T04:36:03.924Z,15.12
2023-02-11T04:46:11.860Z,13.59
2023-02-11T04:56:19.749Z,13.4
2023-02-11T05:06:27.695Z,13.17
2023-02-11T05:16:35.844Z,12.97
2023-02-11T05:26:45.548Z,11.46
2023-02-11T05:36:53.518Z,11.46
2023-02-11T05:47:01.553Z,11.53
2023-02-11T05:57:09.570Z,11.86
2023-02-11T06:07:18.127Z,12.68
2023-02-11T06:17:25.660Z,12.25
2023-02-11T06:27:33.711Z,12.28
2023-02-11T06:37:41.610Z,13.42
2023-02-11T06:47:51.593Z,13.29
2023-02-11T06:58:00.810Z,13.65
2023-02-11T07:08:12.549Z,13.04
2023-02-11T07:18:21.198Z,12.64
2023-02-11T07:28:22.323Z,13.02
2023-02-11T07:38:23.792Z,12.28
2023-02-11T07:48:44.062Z,13.16
2023-02-11T07:59:03.340Z,13.49
2023-02-11T08:08:43.241Z,14.04
2023-02-11T08:19:16.514Z,11.72
2023-02-11T08:28:49.535Z,15.21
2023-02-11T08:39:20.866Z,11.39
2023-02-11T08:49:06.922Z,12.16
2023-02-11T08:59:14.188Z,12.95
2023-02-11T09:09:23.718Z,12.49
2023-02-11T09:19:57.128Z,16.26
2023-02-11T09:29:26.134Z,15.59
2023-02-11T09:39:27.369Z,15.13
2023-02-11T09:49:27.069Z,13.24
2023-02-11T09:59:36.446Z,13.47
2023-02-11T10:09:49.326Z,12.61
2023-02-11T10:19:47.592Z,12.74
2023-02-11T10:29:55.634Z,12.07
2023-02-11T10:40:03.576Z,11.97
2023-02-11T10:50:11.592Z,12.6
2023-02-11T11:00:20.019Z,11.21
2023-02-11T11:10:28.281Z,11.7
2023-02-11T11:20:39.843Z,11.36
2023-02-11T11:30:54.842Z,9.26
2023-02-11T11:40:49.338Z,6.48
2023-02-11T11:50:56.296Z,6.01
2023-02-11T12:01:02.555Z,4.83
2023-02-11T12:11:09.584Z,5.23
2023-02-11T12:21:09.405Z,5.36
2023-02-11T12:31:14.838Z,6.49
2023-02-11T12:41:12.614Z,6.19
2023-02-11T12:51:32.748Z,12.29
2023-02-11T13:02:29.445Z,12.64
2023-02-11T13:11:36.180Z,12.54
2023-02-11T13:21:44.437Z,13.05
2023-02-11T13:31:45.746Z,14.1
2023-02-11T13:41:50.330Z,15.26
2023-02-11T14:01:51.934Z,8.36
2023-02-11T14:22:03.320Z,9.38
2023-02-11T14:32:02.349Z,7.92
2023-02-11T14:42:11.950Z,10.21
2023-02-11T15:02:11.611Z,4.94
2023-02-11T15:12:19.536Z,2.94
2023-02-11T15:22:27.541Z,4.06
2023-02-11T15:32:54.232Z,3.3
2023-02-11T15:42:53.099Z,2.78
2023-02-11T15:52:58.463Z,3.3
2023-02-11T16:13:10.096Z,4.5
2023-02-11T16:24:17.636Z,2.78
2023-02-11T16:33:20.023Z,2.28
2023-02-11T16:43:30.464Z,2.46
2023-02-11T16:53:54.127Z,2.76
2023-02-11T17:03:32.735Z,3.59
2023-02-11T17:23:58.002Z,4.2
2023-02-11T17:33:55.430Z,15.35
2023-02-11T17:54:28.509Z,5.71
2023-02-11T18:04:12.433Z,7.08
2023-02-11T18:14:45.785Z,9.03
2023-02-11T18:34:20.999Z,8.33
2023-02-11T18:44:21.315Z,15.43
2023-02-11T18:54:36.471Z,13.52
2023-02-11T19:04:26.396Z,4.71
2023-02-11T19:14:48.794Z,4.85
2023-02-11T19:24:50.043Z,4.01
2023-02-11T19:34:42.945Z,4.72
2023-02-11T19:44:47.024Z,6.74
2023-02-11T19:54:48.583Z,5.24
2023-02-11T20:04:57.752Z,6.94
2023-02-11T20:15:00.785Z,7.36
2023-02-11T20:25:42.480Z,10.39
2023-02-11T20:35:26.002Z,10.89
2023-02-11T20:45:26.818Z,8.2
2023-02-11T20:55:45.012Z,9.24
2023-02-11T21:05:14.588Z,10.41
2023-02-11T21:15:26.513Z,13.54
2023-02-11T21:25:26.563Z,12.49
2023-02-11T21:35:24.938Z,12.53
2023-02-11T21:45:33.329Z,13.66
2023-02-11T21:55:42.022Z,14.56
2023-02-11T22:05:50.231Z,18.76
2023-02-11T22:15:58.317Z,16.86
2023-02-11T22:26:06.838Z,16.53
2023-02-11T22:36:16.218Z,15.83
2023-02-11T22:46:24.159Z,16.8
2023-02-11T22:56:32.257Z,18.14
2023-02-11T23:06:40.305Z,16.28
2023-02-11T23:16:48.458Z,16.83
2023-02-11T23:26:56.676Z,17.21
2023-02-11T23:37:04.720Z,16.92
2023-02-11T23:47:12.832Z,15.69
2023-02-11T23:57:20.759Z,14.99
